Time;durP1;ratioP1;P1;durP2;ratioP2;P2;SDS_P1;SDS_P2;PMS_P1;PMS_P2;Temp;Humidity;BMP_temperature;BMP_pressure;BME280_temperature;BME280_humidity;BME280_pressure;Samples;Min_cycle;Max_cycle;Signal;HPM_P1;HPM_P2
2023/09/15 00:00:44;;;;;;;7.43;3.55;;;13.90;99.90;;;;;;5048724;28;20044;-56
2023/09/15 00:03:11;;;;;;;11.70;4.45;;;13.90;99.90;;;;;;5047398;28;20040;-56
2023/09/15 00:05:37;;;;;;;8.30;4.00;;;13.90;99.90;;;;;;5046672;28;20036;-56
2023/09/15 00:08:07;;;;;;;8.02;4.32;;;13.80;99.90;;;;;;5062895;28;20047;-56
2023/09/15 00:10:39;;;;;;;10.40;4.57;;;13.80;99.90;;;;;;5060587;28;20618;-56
2023/09/15 00:13:05;;;;;;;7.22;3.28;;;13.80;99.90;;;;;;5062852;28;20048;-56
2023/09/15 00:15:32;;;;;;;7.82;4.43;;;13.70;99.90;;;;;;5045668;28;20045;-56
2023/09/15 00:17:58;;;;;;;5.30;3.45;;;13.70;99.90;;;;;;5026911;28;20127;-56
2023/09/15 00:20:25;;;;;;;7.45;3.72;;;13.80;99.90;;;;;;5061551;28;20471;-53
2023/09/15 00:22:55;;;;;;;8.55;4.07;;;13.70;99.90;;;;;;5046550;28;20129;-56
2023/09/15 00:25:21;;;;;;;5.70;3.22;;;13.70;99.90;;;;;;5061254;28;20094;-53
2023/09/15 00:27:51;;;;;;;10.30;4.30;;;13.70;99.90;;;;;;5060526;28;20083;-56
2023/09/15 00:30:19;;;;;;;8.85;3.72;;;13.70;99.90;;;;;;5062719;28;20064;-54
2023/09/15 00:32:48;;;;;;;8.40;4.32;;;13.60;99.90;;;;;;5047202;28;20044;-54
2023/09/15 00:35:16;;;;;;;10.32;4.00;;;13.60;99.90;;;;;;5065617;28;20119;-55
2023/09/15 00:37:43;;;;;;;6.35;3.80;;;13.60;99.90;;;;;;5066849;28;22003;-53
2023/09/15 00:40:10;;;;;;;6.10;3.70;;;13.60;99.90;;;;;;5048932;28;20042;-54
2023/09/15 00:42:37;;;;;;;5.28;3.40;;;13.50;99.90;;;;;;5062547;28;20437;-56
2023/09/15 00:45:06;;;;;;;5.38;3.25;;;13.50;99.90;;;;;;5065266;28;20502;-54
2023/09/15 00:47:34;;;;;;;17.08;4.65;;;13.50;99.90;;;;;;5048263;28;20136;-56
2023/09/15 00:50:01;;;;;;;13.75;5.13;;;13.50;99.90;;;;;;5065676;28;20670;-53
2023/09/15 00:52:27;;;;;;;5.90;3.72;;;13.50;99.90;;;;;;5049203;28;20123;-56
2023/09/15 00:54:54;;;;;;;9.07;3.20;;;13.50;99.90;;;;;;5049461;28;20462;-56
2023/09/15 00:57:20;;;;;;;6.55;4.13;;;13.50;99.90;;;;;;5063102;28;20616;-53
2023/09/15 00:59:46;;;;;;;6.95;3.42;;;13.50;99.90;;;;;;5060877;28;20698;-56
2023/09/15 01:02:13;;;;;;;6.10;3.30;;;13.50;99.90;;;;;;5049336;28;20120;-56
2023/09/15 01:04:40;;;;;;;7.72;3.88;;;13.50;99.90;;;;;;5065022;28;20098;-52
2023/09/15 01:07:07;;;;;;;6.50;3.53;;;13.50;99.90;;;;;;5062888;28;20052;-57
2023/09/15 01:09:33;;;;;;;7.40;3.45;;;13.50;99.90;;;;;;5061197;28;20052;-56
2023/09/15 01:11:59;;;;;;;8.43;4.07;;;13.50;99.90;;;;;;5063856;28;20040;-54
2023/09/15 01:14:25;;;;;;;7.10;4.40;;;13.40;99.90;;;;;;5064098;28;20032;-55
2023/09/15 01:17:03;;;;;;;9.40;3.78;;;13.40;99.90;;;;;;5064704;28;20115;-56
2023/09/15 01:19:56;;;;;;;9.57;3.65;;;13.40;99.90;;;;;;5045897;28;20052;-56
2023/09/15 01:22:34;;;;;;;7.75;3.83;;;13.40;99.90;;;;;;5065610;28;20047;-55
2023/09/15 01:25:33;;;;;;;6.40;3.72;;;13.30;99.90;;;;;;5049092;28;20158;-55
2023/09/15 01:28:19;;;;;;;13.07;5.00;;;13.20;99.90;;;;;;5058708;28;20072;-56
2023/09/15 01:30:49;;;;;;;7.32;4.10;;;13.20;99.90;;;;;;5058563;28;20044;-55
2023/09/15 01:33:19;;;;;;;10.60;4.38;;;13.20;99.90;;;;;;5067026;28;20044;-54
2023/09/15 01:35:45;;;;;;;10.00;4.40;;;13.10;99.90;;;;;;5032389;28;20110;-56
2023/09/15 01:38:10;;;;;;;7.38;4.10;;;13.10;99.90;;;;;;5065243;28;20738;-55
2023/09/15 01:40:37;;;;;;;9.73;4.13;;;13.10;99.90;;;;;;5065394;28;20032;-56
2023/09/15 01:43:03;;;;;;;10.95;4.43;;;13.10;99.90;;;;;;5064235;28;20044;-55
2023/09/15 01:45:30;;;;;;;6.82;3.88;;;13.10;99.90;;;;;;5064530;28;20032;-56
2023/09/15 01:47:57;;;;;;;7.90;4.20;;;13.10;99.90;;;;;;5063079;28;20049;-55
2023/09/15 01:50:25;;;;;;;7.07;4.05;;;13.10;99.90;;;;;;5060470;28;20045;-56
2023/09/15 01:52:50;;;;;;;8.95;3.88;;;13.10;99.90;;;;;;5062980;28;20067;-53
2023/09/15 01:55:18;;;;;;;12.02;5.53;;;13.10;99.90;;;;;;5063430;28;20040;-56
2023/09/15 01:57:44;;;;;;;6.35;3.78;;;13.10;99.90;;;;;;5063541;28;20566;-53
2023/09/15 02:00:10;;;;;;;12.15;4.70;;;13.10;99.90;;;;;;5064915;28;20040;-56
2023/09/15 02:02:36;;;;;;;8.60;4.97;;;13.00;99.90;;;;;;5058183;28;20116;-55
2023/09/15 02:05:02;;;;;;;10.75;3.90;;;13.00;99.90;;;;;;5062860;28;20558;-56
2023/09/15 02:07:28;;;;;;;6.10;4.05;;;12.90;99.90;;;;;;5062750;28;20161;-54
2023/09/15 02:09:54;;;;;;;8.05;3.60;;;12.90;99.90;;;;;;5060572;28;20036;-56
2023/09/15 02:12:19;;;;;;;11.10;4.38;;;12.90;99.90;;;;;;5064271;28;20119;-56
2023/09/15 02:14:45;;;;;;;11.57;4.13;;;12.90;99.90;;;;;;5047771;28;20044;-56
2023/09/15 02:17:15;;;;;;;7.60;4.43;;;12.80;99.90;;;;;;5061590;28;20068;-54
2023/09/15 02:19:42;;;;;;;10.65;5.18;;;12.80;99.90;;;;;;5064977;28;20502;-56
2023/09/15 02:22:08;;;;;;;10.73;4.57;;;12.70;99.90;;;;;;5043009;28;20047;-57
2023/09/15 02:24:34;;;;;;;12.38;4.60;;;12.60;99.90;;;;;;5062829;28;20036;-56
2023/09/15 02:27:00;;;;;;;10.18;4.47;;;12.70;99.90;;;;;;5064142;28;20045;-57
2023/09/15 02:29:26;;;;;;;7.80;4.40;;;12.60;99.90;;;;;;5061556;28;20439;-57
2023/09/15 02:31:52;;;;;;;7.15;4.43;;;12.60;99.90;;;;;;5055545;28;20155;-56
2023/09/15 02:34:17;;;;;;;7.40;3.90;;;12.60;99.90;;;;;;5061307;28;20049;-56
2023/09/15 02:36:44;;;;;;;7.85;4.20;;;12.60;99.90;;;;;;5057081;28;20162;-53
2023/09/15 02:39:09;;;;;;;7.93;4.30;;;12.60;99.90;;;;;;5061349;28;20040;-56
2023/09/15 02:41:36;;;;;;;7.82;4.30;;;12.60;99.90;;;;;;5041502;28;20051;-54
2023/09/15 02:44:02;;;;;;;8.98;4.35;;;12.50;99.90;;;;;;5062981;28;20453;-57
2023/09/15 02:46:27;;;;;;;6.63;4.03;;;12.60;99.90;;;;;;5066650;28;20051;-57
2023/09/15 02:48:54;;;;;;;8.57;4.00;;;12.60;99.90;;;;;;5049319;28;20570;-57
2023/09/15 02:51:19;;;;;;;10.95;4.90;;;12.60;99.90;;;;;;5062536;28;20055;-56
2023/09/15 02:53:45;;;;;;;7.53;4.28;;;12.60;99.90;;;;;;5062924;28;20033;-56
2023/09/15 02:56:11;;;;;;;10.90;4.63;;;12.60;99.90;;;;;;5059935;28;20491;-57
2023/09/15 02:58:36;;;;;;;10.65;4.93;;;12.60;99.90;;;;;;5064768;28;20047;-56
2023/09/15 03:01:13;;;;;;;8.25;3.80;;;12.60;99.90;;;;;;5047066;28;20491;-56
2023/09/15 03:03:39;;;;;;;9.45;4.57;;;12.60;99.90;;;;;;5063064;28;20040;-57
2023/09/15 03:06:06;;;;;;;8.57;3.80;;;12.60;99.90;;;;;;5061146;28;20040;-56
2023/09/15 03:08:33;;;;;;;9.27;4.68;;;12.50;99.90;;;;;;5058497;28;20037;-56
2023/09/15 03:10:59;;;;;;;9.73;4.22;;;12.50;99.90;;;;;;5063545;28;20703;-57
2023/09/15 03:13:25;;;;;;;9.52;5.40;;;12.50;99.90;;;;;;5062999;28;20151;-56
2023/09/15 03:15:50;;;;;;;8.82;4.40;;;12.50;99.90;;;;;;5063181;28;20025;-56
2023/09/15 03:18:16;;;;;;;8.60;4.30;;;12.50;99.90;;;;;;5034518;28;20036;-57
2023/09/15 03:20:41;;;;;;;9.85;5.28;;;12.50;99.90;;;;;;5044916;28;20133;-56
2023/09/15 03:23:07;;;;;;;6.90;4.10;;;12.50;99.90;;;;;;5045817;28;20047;-57
2023/09/15 03:25:33;;;;;;;8.57;4.32;;;12.40;99.90;;;;;;5059710;28;20512;-56
2023/09/15 03:27:58;;;;;;;8.15;4.13;;;12.40;99.90;;;;;;5063952;28;20040;-56
2023/09/15 03:30:24;;;;;;;7.40;4.68;;;12.30;99.90;;;;;;5046559;28;20073;-56
2023/09/15 03:32:50;;;;;;;8.27;4.25;;;12.30;99.90;;;;;;5064025;28;20032;-55
2023/09/15 03:35:16;;;;;;;7.82;4.03;;;12.30;99.90;;;;;;5053951;28;20041;-56
2023/09/15 03:37:41;;;;;;;8.80;3.92;;;12.30;99.90;;;;;;5043102;28;20040;-54
2023/09/15 03:40:11;;;;;;;10.30;4.63;;;12.30;99.90;;;;;;5059881;28;20075;-56
2023/09/15 03:42:38;;;;;;;7.45;3.95;;;12.30;99.90;;;;;;5064511;28;20047;-57
2023/09/15 03:45:08;;;;;;;7.57;3.80;;;12.30;99.90;;;;;;5046160;28;20747;-57
2023/09/15 03:47:34;;;;;;;8.15;3.78;;;12.20;99.90;;;;;;5060398;28;20049;-56
2023/09/15 03:50:02;;;;;;;6.63;4.05;;;12.30;99.90;;;;;;5046544;28;20078;-56
2023/09/15 03:52:28;;;;;;;9.93;4.57;;;12.30;99.90;;;;;;5061807;28;20102;-56
2023/09/15 03:55:00;;;;;;;6.75;3.25;;;12.30;99.90;;;;;;5061375;28;20419;-57
2023/09/15 03:57:27;;;;;;;11.20;4.15;;;12.30;99.90;;;;;;5059923;28;20044;-55
2023/09/15 03:59:53;;;;;;;9.43;4.60;;;12.30;99.90;;;;;;5045308;28;20091;-56
2023/09/15 04:02:19;;;;;;;7.95;4.05;;;12.30;99.90;;;;;;5046177;28;20068;-55
2023/09/15 04:04:44;;;;;;;12.35;4.75;;;12.30;99.90;;;;;;5061922;28;20055;-56
2023/09/15 04:07:10;;;;;;;7.75;4.45;;;12.30;99.90;;;;;;5061477;28;20095;-56
2023/09/15 04:09:36;;;;;;;8.75;5.75;;;12.20;99.90;;;;;;5065154;28;20694;-56
2023/09/15 04:12:03;;;;;;;8.88;4.63;;;12.20;99.90;;;;;;5064152;28;20647;-55
2023/09/15 04:14:34;;;;;;;9.32;4.53;;;12.20;99.90;;;;;;5064693;28;20044;-56
2023/09/15 04:17:00;;;;;;;8.68;4.93;;;12.10;99.90;;;;;;5063277;28;20403;-57
2023/09/15 04:19:25;;;;;;;8.73;4.53;;;12.10;99.90;;;;;;5039179;28;20032;-56
2023/09/15 04:21:52;;;;;;;11.55;4.43;;;12.10;99.90;;;;;;5059911;28;20804;-55
2023/09/15 04:24:17;;;;;;;14.60;4.90;;;12.10;99.90;;;;;;5064152;28;20454;-57
2023/09/15 04:26:43;;;;;;;10.73;4.53;;;12.10;99.90;;;;;;5052388;28;20064;-56
2023/09/15 04:29:09;;;;;;;8.77;4.68;;;12.10;99.90;;;;;;5048925;28;20063;-56
2023/09/15 04:31:37;;;;;;;8.18;4.63;;;12.00;99.90;;;;;;5050341;28;20111;-55
2023/09/15 04:34:03;;;;;;;11.55;4.97;;;12.00;99.90;;;;;;5064797;28;20067;-56
2023/09/15 04:36:30;;;;;;;10.27;4.95;;;12.00;99.90;;;;;;5046746;28;20040;-57
2023/09/15 04:38:56;;;;;;;11.13;5.18;;;11.90;99.90;;;;;;5062714;28;20051;-54
2023/09/15 04:41:22;;;;;;;9.32;5.63;;;11.90;99.90;;;;;;5065875;28;20040;-53
2023/09/15 04:43:47;;;;;;;7.97;4.10;;;11.90;99.90;;;;;;5064858;28;20090;-56
2023/09/15 04:46:13;;;;;;;9.65;4.80;;;11.80;99.90;;;;;;5045541;28;20600;-56
2023/09/15 04:48:39;;;;;;;11.93;5.57;;;11.80;99.90;;;;;;5063333;28;20040;-56
2023/09/15 04:51:06;;;;;;;14.10;5.82;;;11.80;99.90;;;;;;5067168;28;20127;-55
2023/09/15 04:53:32;;;;;;;10.93;4.70;;;11.80;99.90;;;;;;5065131;28;20581;-56
2023/09/15 04:55:58;;;;;;;11.32;4.47;;;11.70;99.90;;;;;;5063791;28;20093;-55
2023/09/15 04:58:23;;;;;;;14.32;4.75;;;11.80;99.90;;;;;;5065660;28;20485;-56
2023/09/15 05:00:49;;;;;;;8.23;4.65;;;11.70;99.90;;;;;;5047904;28;20435;-53
2023/09/15 05:03:15;;;;;;;7.95;4.35;;;11.80;99.90;;;;;;5046875;28;20581;-56
2023/09/15 05:05:43;;;;;;;6.65;4.10;;;11.80;99.90;;;;;;5059117;28;20048;-57
2023/09/15 05:08:09;;;;;;;7.63;4.18;;;11.80;99.90;;;;;;5045132;28;20135;-55
2023/09/15 05:10:34;;;;;;;10.77;5.10;;;11.80;99.90;;;;;;5067161;28;20116;-53
2023/09/15 05:13:05;;;;;;;12.02;5.30;;;11.80;99.90;;;;;;5064841;28;20156;-56
2023/09/15 05:15:30;;;;;;;9.65;4.70;;;11.80;99.90;;;;;;5060105;28;20087;-55
2023/09/15 05:17:56;;;;;;;8.25;4.35;;;11.80;99.90;;;;;;5044919;28;20430;-53
2023/09/15 05:20:22;;;;;;;12.48;5.72;;;11.80;99.90;;;;;;5063624;28;20044;-56
2023/09/15 05:22:47;;;;;;;8.68;4.63;;;11.70;99.90;;;;;;5064311;28;20369;-56
2023/09/15 05:25:13;;;;;;;12.57;5.07;;;11.70;99.90;;;;;;5063308;28;20048;-53
2023/09/15 05:27:39;;;;;;;9.00;5.00;;;11.70;99.90;;;;;;5048643;28;20049;-56
2023/09/15 05:30:07;;;;;;;9.00;4.90;;;11.60;99.90;;;;;;5047125;28;20090;-56
2023/09/15 05:32:33;;;;;;;11.65;5.00;;;11.60;99.90;;;;;;5043342;28;20139;-56
2023/09/15 05:34:59;;;;;;;8.30;4.28;;;11.60;99.90;;;;;;5065873;28;20119;-56
2023/09/15 05:37:24;;;;;;;8.85;4.45;;;11.60;99.90;;;;;;5042558;28;20036;-55
2023/09/15 05:39:50;;;;;;;7.90;4.43;;;11.60;99.90;;;;;;5061746;28;20646;-56
2023/09/15 05:42:16;;;;;;;9.25;5.25;;;11.60;99.90;;;;;;5062960;28;20050;-55
2023/09/15 05:44:41;;;;;;;7.57;4.28;;;11.60;99.90;;;;;;5061430;28;20049;-57
2023/09/15 05:47:07;;;;;;;7.32;4.53;;;11.60;99.90;;;;;;5061999;28;20068;-52
2023/09/15 05:49:33;;;;;;;10.88;4.45;;;11.70;99.90;;;;;;5046240;28;20491;-56
2023/09/15 05:52:01;;;;;;;7.35;4.50;;;11.70;99.90;;;;;;5062307;28;20051;-53
2023/09/15 05:54:26;;;;;;;8.80;4.55;;;11.70;99.90;;;;;;5061844;28;20501;-52
2023/09/15 05:56:52;;;;;;;9.30;4.78;;;11.80;99.90;;;;;;5062536;28;20048;-56
2023/09/15 05:59:18;;;;;;;13.00;5.40;;;11.80;99.90;;;;;;5046129;28;20049;-55
2023/09/15 06:01:46;;;;;;;9.93;4.68;;;11.90;99.90;;;;;;5062246;28;20205;-55
2023/09/15 06:04:14;;;;;;;10.93;4.47;;;11.90;99.90;;;;;;5048036;28;20045;-54
2023/09/15 06:06:39;;;;;;;9.13;4.80;;;11.90;99.90;;;;;;5045325;28;20048;-56
2023/09/15 06:09:05;;;;;;;8.10;4.82;;;11.90;99.90;;;;;;5045162;28;20059;-56
2023/09/15 06:11:31;;;;;;;9.27;5.57;;;12.00;99.90;;;;;;5061889;28;20032;-56
2023/09/15 06:13:56;;;;;;;8.57;4.30;;;12.00;99.90;;;;;;5063284;28;20036;-54
2023/09/15 06:16:22;;;;;;;7.32;4.47;;;12.10;99.90;;;;;;5064893;28;20120;-54
2023/09/15 06:18:48;;;;;;;7.47;4.15;;;12.10;99.90;;;;;;5047005;28;20052;-56
2023/09/15 06:21:14;;;;;;;8.77;4.28;;;12.20;99.90;;;;;;5061847;28;20059;-54
2023/09/15 06:23:39;;;;;;;11.02;4.25;;;12.20;99.90;;;;;;5047569;28;20076;-55
2023/09/15 06:26:06;;;;;;;8.75;4.15;;;12.30;99.90;;;;;;5043480;28;20043;-54
2023/09/15 06:28:32;;;;;;;10.35;4.78;;;12.40;99.90;;;;;;5060792;28;20051;-56
2023/09/15 06:30:59;;;;;;;7.75;4.03;;;12.40;99.90;;;;;;5061374;28;20048;-53
2023/09/15 06:33:24;;;;;;;10.13;4.80;;;12.50;99.90;;;;;;5061404;28;20078;-57
2023/09/15 06:35:50;;;;;;;8.48;4.43;;;12.60;99.90;;;;;;5059333;28;20048;-56
2023/09/15 06:38:16;;;;;;;13.23;4.85;;;12.60;99.90;;;;;;5060187;28;20398;-54
2023/09/15 06:40:41;;;;;;;7.38;4.20;;;12.70;99.90;;;;;;5046375;28;20033;-55
2023/09/15 06:43:07;;;;;;;12.80;5.25;;;12.80;99.90;;;;;;5059319;28;20036;-55
2023/09/15 06:45:34;;;;;;;8.82;4.68;;;12.80;99.90;;;;;;5064082;28;20136;-55
2023/09/15 06:48:00;;;;;;;10.02;4.32;;;12.90;99.90;;;;;;5060403;28;20078;-56
2023/09/15 06:50:26;;;;;;;10.75;4.40;;;12.90;99.90;;;;;;5064706;28;20302;-56
2023/09/15 06:52:52;;;;;;;10.27;4.32;;;13.00;99.90;;;;;;5062743;28;20048;-55
2023/09/15 06:55:17;;;;;;;11.38;4.60;;;13.10;99.90;;;;;;5046986;28;20041;-53
2023/09/15 06:57:43;;;;;;;9.82;4.10;;;13.20;99.90;;;;;;5064281;28;20911;-55
2023/09/15 07:00:09;;;;;;;7.35;4.50;;;13.30;99.90;;;;;;5042484;28;20064;-56
2023/09/15 07:02:35;;;;;;;10.48;4.30;;;13.40;99.90;;;;;;5042252;28;20045;-54
2023/09/15 07:05:01;;;;;;;11.30;4.75;;;13.50;99.90;;;;;;5061798;28;20028;-55
2023/09/15 07:07:26;;;;;;;8.85;4.32;;;13.60;99.90;;;;;;5061380;28;20052;-56
2023/09/15 07:09:52;;;;;;;10.10;4.72;;;13.70;99.90;;;;;;5064598;28;20454;-56
2023/09/15 07:12:18;;;;;;;13.38;4.90;;;13.80;99.90;;;;;;5038939;28;20068;-54
2023/09/15 07:14:43;;;;;;;8.15;4.55;;;13.90;99.90;;;;;;5061927;28;20040;-56
2023/09/15 07:17:09;;;;;;;8.40;4.30;;;14.00;99.90;;;;;;5043911;28;20400;-55
2023/09/15 07:19:35;;;;;;;9.52;4.80;;;14.10;99.90;;;;;;5059162;28;20533;-55
2023/09/15 07:22:00;;;;;;;10.93;4.53;;;14.30;99.90;;;;;;5057148;28;20515;-56
2023/09/15 07:24:26;;;;;;;8.95;4.53;;;14.50;99.90;;;;;;5062820;28;20045;-57
2023/09/15 07:26:52;;;;;;;6.38;4.07;;;14.60;99.90;;;;;;5061586;28;20447;-57
2023/09/15 07:29:18;;;;;;;9.80;4.43;;;14.80;99.90;;;;;;5059129;28;20051;-56
2023/09/15 07:31:43;;;;;;;9.65;3.88;;;14.90;99.90;;;;;;5042310;28;20132;-57
2023/09/15 07:34:09;;;;;;;9.15;4.32;;;15.00;99.90;;;;;;5063456;28;20040;-56
2023/09/15 07:36:35;;;;;;;6.40;3.85;;;15.10;99.90;;;;;;5065407;28;20052;-57
2023/09/15 07:39:02;;;;;;;9.30;4.30;;;15.20;99.90;;;;;;5061034;28;20043;-56
2023/09/15 07:41:28;;;;;;;10.52;4.30;;;15.30;99.90;;;;;;5058263;28;20036;-56
2023/09/15 07:43:56;;;;;;;6.25;3.80;;;15.40;99.90;;;;;;5042366;28;20048;-57
2023/09/15 07:46:22;;;;;;;7.82;3.72;;;15.50;99.90;;;;;;5041605;28;20499;-57
2023/09/15 07:48:48;;;;;;;9.38;4.40;;;15.50;99.90;;;;;;5061688;28;20032;-56
2023/09/15 07:51:15;;;;;;;6.90;3.58;;;15.60;99.90;;;;;;5044690;28;20040;-56
2023/09/15 07:53:42;;;;;;;10.57;3.90;;;15.70;99.90;;;;;;5045452;28;20064;-56
2023/09/15 07:56:08;;;;;;;4.88;3.38;;;15.80;99.90;;;;;;5059806;28;20462;-57
2023/09/15 07:58:33;;;;;;;6.72;3.97;;;15.90;99.90;;;;;;5059964;28;20043;-56
2023/09/15 08:01:00;;;;;;;5.82;3.63;;;16.00;99.90;;;;;;5060943;28;20043;-55
2023/09/15 08:03:26;;;;;;;7.00;3.50;;;16.10;99.90;;;;;;5043749;28;20044;-56
2023/09/15 08:05:52;;;;;;;9.90;4.00;;;16.20;99.90;;;;;;5038498;28;20140;-56
2023/09/15 08:08:18;;;;;;;10.98;3.70;;;16.30;99.90;;;;;;5057762;28;20045;-55
2023/09/15 08:10:45;;;;;;;7.60;4.03;;;16.40;99.90;;;;;;5059356;28;20059;-56
2023/09/15 08:13:11;;;;;;;7.95;3.33;;;16.50;99.90;;;;;;5060896;28;20388;-56
2023/09/15 08:15:37;;;;;;;8.45;4.43;;;16.60;99.90;;;;;;5061417;28;20055;-56
2023/09/15 08:18:03;;;;;;;6.93;4.25;;;16.70;99.90;;;;;;5060018;28;20036;-57
2023/09/15 08:20:29;;;;;;;9.18;4.20;;;16.80;99.90;;;;;;5060435;28;20028;-57
2023/09/15 08:22:55;;;;;;;6.57;3.47;;;16.90;99.90;;;;;;5058589;28;20167;-56
2023/09/15 08:25:20;;;;;;;10.68;3.95;;;17.10;99.90;;;;;;5058756;28;20044;-55
2023/09/15 08:27:46;;;;;;;8.27;3.67;;;17.20;99.90;;;;;;5043879;28;20149;-56
2023/09/15 08:30:13;;;;;;;7.78;3.85;;;17.30;99.90;;;;;;5059236;28;20036;-57
2023/09/15 08:32:39;;;;;;;8.02;3.10;;;17.40;99.90;;;;;;5056956;28;20515;-56
2023/09/15 08:35:05;;;;;;;7.60;3.60;;;17.50;99.90;;;;;;5060063;28;20083;-57
2023/09/15 08:37:31;;;;;;;7.30;3.00;;;17.60;99.90;;;;;;5062168;28;20049;-56
2023/09/15 08:39:57;;;;;;;8.82;3.08;;;17.70;99.90;;;;;;5056661;28;20371;-58
2023/09/15 08:42:28;;;;;;;7.93;2.80;;;17.80;99.90;;;;;;5041181;28;20496;-57
2023/09/15 08:45:01;;;;;;;8.38;3.83;;;17.90;99.90;;;;;;5059896;28;20532;-57
2023/09/15 08:47:34;;;;;;;8.93;3.33;;;18.00;99.90;;;;;;5057339;28;20047;-58
2023/09/15 08:50:03;;;;;;;6.90;3.30;;;18.10;99.90;;;;;;5059778;28;20024;-57
2023/09/15 08:52:30;;;;;;;7.05;3.30;;;18.20;99.90;;;;;;5060288;28;20035;-58
2023/09/15 08:54:57;;;;;;;6.35;3.08;;;18.30;99.90;;;;;;5061040;28;20040;-57
2023/09/15 08:57:24;;;;;;;8.68;3.00;;;18.30;99.90;;;;;;5065623;28;20044;-58
2023/09/15 08:59:51;;;;;;;7.47;4.13;;;18.40;99.90;;;;;;5059327;28;20052;-58
2023/09/15 09:02:17;;;;;;;8.07;3.42;;;18.50;99.90;;;;;;5058061;28;20136;-55
2023/09/15 09:04:43;;;;;;;7.13;3.10;;;18.60;99.90;;;;;;5058865;28;20040;-58
2023/09/15 09:07:09;;;;;;;9.90;3.72;;;18.70;99.90;;;;;;5048341;28;20037;-58
2023/09/15 09:09:36;;;;;;;6.82;3.38;;;18.80;99.90;;;;;;5050473;28;20063;-57
2023/09/15 09:12:03;;;;;;;7.05;3.97;;;18.90;99.90;;;;;;5047120;28;20115;-58
2023/09/15 09:14:28;;;;;;;6.28;3.38;;;19.10;99.90;;;;;;5060485;28;20048;-57
2023/09/15 09:16:55;;;;;;;7.88;3.30;;;19.10;99.90;;;;;;5062920;28;20040;-58
2023/09/15 09:19:21;;;;;;;6.95;3.53;;;19.20;99.90;;;;;;5061585;28;20104;-58
2023/09/15 09:21:46;;;;;;;8.15;4.03;;;19.30;99.90;;;;;;5061602;28;20483;-58
2023/09/15 09:24:14;;;;;;;6.00;4.10;;;19.40;99.90;;;;;;5058961;28;20643;-57
2023/09/15 09:26:40;;;;;;;10.60;5.03;;;19.40;99.90;;;;;;5045259;28;20041;-58
2023/09/15 09:29:06;;;;;;;5.90;3.80;;;19.50;99.90;;;;;;5062024;28;20101;-58
2023/09/15 09:31:32;;;;;;;7.53;3.63;;;19.60;99.90;;;;;;5040293;28;20041;-57
2023/09/15 09:34:01;;;;;;;7.80;4.47;;;19.70;99.90;;;;;;5063173;28;20040;-57
2023/09/15 09:36:28;;;;;;;9.70;4.82;;;19.70;99.90;;;;;;5061939;28;20068;-58
2023/09/15 09:38:55;;;;;;;7.15;4.70;;;19.80;99.80;;;;;;5057626;28;20052;-58
2023/09/15 09:41:25;;;;;;;6.40;4.65;;;19.90;99.80;;;;;;5043196;28;20049;-57
2023/09/15 09:43:51;;;;;;;10.95;4.40;;;20.00;99.90;;;;;;5060168;28;20067;-58
2023/09/15 09:46:21;;;;;;;7.85;4.05;;;20.10;99.50;;;;;;5056962;28;20411;-58
2023/09/15 09:48:48;;;;;;;7.25;5.40;;;20.10;99.50;;;;;;5059120;28;20044;-56
2023/09/15 09:51:15;;;;;;;7.05;5.03;;;20.00;99.20;;;;;;5058018;28;20137;-58
2023/09/15 09:53:41;;;;;;;8.90;4.85;;;20.00;99.20;;;;;;5061036;28;20673;-57
2023/09/15 09:56:07;;;;;;;10.68;5.28;;;20.20;99.20;;;;;;5027453;28;20037;-58
2023/09/15 09:58:36;;;;;;;6.95;4.63;;;20.30;98.80;;;;;;5060753;28;20045;-60
2023/09/15 10:01:06;;;;;;;8.38;5.50;;;20.40;99.10;;;;;;5064887;28;20059;-57
2023/09/15 10:03:32;;;;;;;8.50;5.50;;;20.50;98.30;;;;;;5062157;28;20613;-57
2023/09/15 10:05:58;;;;;;;8.15;5.57;;;20.60;98.30;;;;;;5038975;28;20797;-58
2023/09/15 10:08:26;;;;;;;10.48;5.80;;;20.70;98.00;;;;;;5042599;28;20140;-55
2023/09/15 10:10:53;;;;;;;9.55;5.72;;;20.80;97.70;;;;;;5060315;28;20076;-58
2023/09/15 10:13:19;;;;;;;9.40;6.28;;;20.80;97.60;;;;;;5039318;28;20055;-58
2023/09/15 10:15:46;;;;;;;11.32;6.07;;;20.80;97.70;;;;;;5058726;28;20048;-54
2023/09/15 10:18:14;;;;;;;9.25;5.68;;;20.90;97.30;;;;;;5055247;28;20045;-56
2023/09/15 10:20:42;;;;;;;9.48;6.07;;;21.00;97.40;;;;;;5060646;28;20049;-56
2023/09/15 10:23:10;;;;;;;10.95;5.88;;;21.10;97.10;;;;;;5061863;28;20132;-57
2023/09/15 10:25:53;;;;;;;7.72;5.45;;;21.10;97.10;;;;;;5062539;28;20040;-59
2023/09/15 10:28:22;;;;;;;14.57;6.63;;;21.20;96.80;;;;;;5049455;28;20091;-56
2023/09/15 10:30:55;;;;;;;8.20;5.55;;;21.20;96.60;;;;;;5037723;28;20041;-57
2023/09/15 10:33:28;;;;;;;9.07;4.85;;;21.30;96.40;;;;;;5055969;28;20048;-57
2023/09/15 10:36:04;;;;;;;8.20;5.60;;;21.20;95.80;;;;;;5058676;28;20048;-61
2023/09/15 10:38:34;;;;;;;7.97;4.60;;;21.30;96.10;;;;;;5045370;28;20059;-56
2023/09/15 10:41:03;;;;;;;8.52;4.88;;;21.40;96.10;;;;;;5049888;28;20051;-57
2023/09/15 10:43:29;;;;;;;11.70;6.50;;;21.60;96.20;;;;;;5049318;28;20098;-59
2023/09/15 10:46:02;;;;;;;9.18;5.45;;;21.70;95.80;;;;;;5061985;28;20040;-58
2023/09/15 10:48:48;;;;;;;11.57;4.88;;;21.70;96.00;;;;;;5052343;28;20045;-56
2023/09/15 10:51:18;;;;;;;8.75;5.18;;;21.80;95.10;;;;;;5053019;28;20068;-56
2023/09/15 10:53:59;;;;;;;12.23;5.32;;;21.90;95.50;;;;;;5061399;28;20041;-59
2023/09/15 10:56:25;;;;;;;9.32;5.65;;;22.00;95.10;;;;;;5053384;28;20144;-59
2023/09/15 10:58:51;;;;;;;7.18;4.60;;;22.10;94.90;;;;;;5042077;28;20131;-58
2023/09/15 11:01:18;;;;;;;7.93;4.95;;;22.00;94.50;;;;;;5036710;28;20052;-57
2023/09/15 11:03:44;;;;;;;6.65;5.30;;;22.00;94.80;;;;;;5067559;28;20123;-57
2023/09/15 11:06:13;;;;;;;7.35;4.93;;;22.20;95.20;;;;;;5061076;28;20052;-59
2023/09/15 11:08:39;;;;;;;9.13;4.95;;;22.30;94.70;;;;;;5054679;28;20151;-56
2023/09/15 11:11:09;;;;;;;7.55;4.50;;;22.30;94.70;;;;;;5057926;28;20757;-57
2023/09/15 11:13:35;;;;;;;9.50;4.18;;;22.20;94.00;;;;;;5036542;28;20151;-56
2023/09/15 11:16:01;;;;;;;9.32;4.47;;;22.10;94.50;;;;;;5058198;28;20072;-57
2023/09/15 11:18:31;;;;;;;7.38;3.97;;;22.20;94.60;;;;;;5037058;28;20044;-59
2023/09/15 11:20:58;;;;;;;10.18;4.60;;;22.30;94.30;;;;;;5058062;28;20059;-58
2023/09/15 11:23:26;;;;;;;6.68;3.67;;;22.30;94.30;;;;;;5063656;28;20415;-57
2023/09/15 11:26:01;;;;;;;8.98;3.95;;;22.20;93.90;;;;;;5045574;28;20036;-57
2023/09/15 11:28:30;;;;;;;6.47;3.72;;;22.20;94.30;;;;;;5061603;28;20120;-56
2023/09/15 11:30:56;;;;;;;7.25;3.92;;;22.30;94.10;;;;;;5060088;28;20048;-59
2023/09/15 11:33:22;;;;;;;9.63;3.42;;;22.40;94.00;;;;;;5046163;28;20032;-59
2023/09/15 11:35:48;;;;;;;6.68;3.65;;;22.40;94.40;;;;;;5041795;28;20048;-57
2023/09/15 11:38:14;;;;;;;8.15;3.85;;;22.60;94.40;;;;;;5058699;28;20040;-56
2023/09/15 11:40:47;;;;;;;5.70;3.17;;;22.80;94.10;;;;;;5018338;28;20048;-56
2023/09/15 11:43:13;;;;;;;7.85;3.50;;;22.70;93.70;;;;;;5043884;28;20051;-59
2023/09/15 11:45:40;;;;;;;5.13;3.17;;;22.50;93.90;;;;;;5051694;28;20094;-59
2023/09/15 11:48:06;;;;;;;5.75;3.00;;;22.40;94.10;;;;;;5039578;28;20601;-57
2023/09/15 11:50:34;;;;;;;7.00;3.17;;;22.50;94.20;;;;;;5052545;28;20045;-56
2023/09/15 11:53:00;;;;;;;5.32;2.55;;;22.40;93.50;;;;;;5044357;28;20047;-56
2023/09/15 11:55:26;;;;;;;7.18;2.95;;;22.30;94.30;;;;;;5056683;28;20040;-56
2023/09/15 11:57:52;;;;;;;4.65;2.47;;;22.50;94.20;;;;;;5060267;28;20705;-59
2023/09/15 12:00:20;;;;;;;8.02;2.90;;;22.60;94.50;;;;;;5065125;28;20060;-58
2023/09/15 12:02:47;;;;;;;6.18;3.15;;;22.90;94.10;;;;;;5059916;28;20624;-56
2023/09/15 12:05:20;;;;;;;5.60;3.60;;;23.10;93.80;;;;;;5063830;28;20549;-56
2023/09/15 12:07:47;;;;;;;6.20;2.65;;;23.30;93.20;;;;;;5059013;28;20604;-56
2023/09/15 12:10:18;;;;;;;5.40;2.90;;;23.20;92.50;;;;;;5062060;28;20507;-56
2023/09/15 12:12:45;;;;;;;5.82;2.83;;;23.00;93.10;;;;;;5063149;28;20119;-59
2023/09/15 12:15:13;;;;;;;7.63;3.05;;;23.00;93.70;;;;;;5045909;28;20037;-56
2023/09/15 12:17:45;;;;;;;5.88;2.50;;;23.10;93.50;;;;;;5059519;28;20132;-57
2023/09/15 12:20:12;;;;;;;5.50;2.28;;;23.00;92.90;;;;;;5059269;28;20039;-56
2023/09/15 12:22:40;;;;;;;5.80;2.55;;;22.80;92.70;;;;;;5047771;28;20025;-59
2023/09/15 12:25:09;;;;;;;7.43;2.65;;;22.50;92.70;;;;;;5033274;28;20044;-58
2023/09/15 12:27:37;;;;;;;6.88;2.65;;;22.40;93.00;;;;;;5063619;28;20037;-56
2023/09/15 12:30:04;;;;;;;6.70;2.78;;;22.60;93.70;;;;;;5067540;28;20056;-56
2023/09/15 12:32:32;;;;;;;5.50;2.85;;;23.00;93.50;;;;;;5049961;28;20659;-56
2023/09/15 12:34:58;;;;;;;5.07;2.42;;;23.10;93.10;;;;;;5049825;28;20051;-55
2023/09/15 12:37:29;;;;;;;6.40;2.70;;;23.00;92.70;;;;;;5065490;28;20165;-58
2023/09/15 12:39:55;;;;;;;5.88;2.63;;;23.10;92.80;;;;;;5059676;28;20143;-56
2023/09/15 12:42:20;;;;;;;6.10;2.95;;;23.10;92.50;;;;;;5067459;28;20123;-57
2023/09/15 12:44:46;;;;;;;6.07;2.97;;;23.10;92.80;;;;;;5064527;28;20044;-55